createdAt,value
2022-08-17T00:00:34.891Z,14.07
2022-08-17T00:03:22.237Z,14.20
2022-08-17T00:05:51.520Z,14.45
2022-08-17T00:08:22.875Z,13.73
2022-08-17T00:10:51.561Z,13.15
2022-08-17T00:13:27.666Z,13.70
2022-08-17T00:16:01.598Z,14.13
2022-08-17T00:19:06.063Z,15.23
2022-08-17T00:21:23.808Z,14.77
2022-08-17T00:23:53.682Z,15.73
2022-08-17T00:26:44.352Z,15.30
2022-08-17T00:29:09.330Z,16.05
2022-08-17T00:31:42.288Z,16.08
2022-08-17T00:34:10.179Z,16.77
2022-08-17T00:36:37.596Z,17.05
2022-08-17T00:39:05.066Z,16.42
2022-08-17T00:41:32.599Z,16.65
2022-08-17T00:44:02.471Z,15.73
2022-08-17T00:46:41.067Z,16.77
2022-08-17T00:49:10.048Z,17.30
2022-08-17T00:51:50.539Z,16.45
2022-08-17T00:54:33.303Z,17.88
2022-08-17T00:57:21.104Z,17.55
2022-08-17T01:00:02.655Z,19.45
2022-08-17T01:02:42.383Z,19.17
2022-08-17T01:05:20.878Z,19.30
2022-08-17T01:07:50.840Z,18.55
2022-08-17T01:10:59.306Z,19.27
2022-08-17T01:13:11.187Z,18.90
2022-08-17T01:15:46.230Z,20.73
2022-08-17T01:18:14.059Z,18.92
2022-08-17T01:20:48.602Z,20.60
2022-08-17T01:23:20.770Z,21.27
2022-08-17T01:25:51.347Z,21.58
2022-08-17T01:28:36.457Z,21.52
2022-08-17T01:31:08.522Z,22.17
2022-08-17T01:33:36.582Z,22.25
2022-08-17T01:36:07.005Z,22.42
2022-08-17T01:38:38.834Z,23.08
2022-08-17T01:41:11.731Z,21.95
2022-08-17T01:43:49.136Z,22.83
2022-08-17T01:46:35.833Z,23.55
2022-08-17T01:49:08.001Z,21.85
2022-08-17T01:51:35.174Z,22.17
2022-08-17T01:54:06.445Z,21.48
2022-08-17T01:56:36.972Z,22.40
2022-08-17T01:59:04.843Z,22.95
2022-08-17T02:01:34.604Z,22.05
2022-08-17T02:04:02.152Z,23.10
2022-08-17T02:06:52.410Z,22.25
2022-08-17T02:09:19.368Z,24.65
2022-08-17T02:11:50.709Z,24.35
2022-08-17T02:14:18.074Z,24.40
2022-08-17T02:16:45.224Z,23.83
2022-08-17T02:19:15.678Z,23.98
2022-08-17T02:21:45.521Z,22.95
2022-08-17T02:24:58.654Z,23.55
2022-08-17T02:27:05.977Z,23.85
2022-08-17T02:29:33.147Z,23.63
2022-08-17T02:32:01.814Z,22.00
2022-08-17T02:34:29.968Z,21.70
2022-08-17T02:36:57.140Z,21.50
2022-08-17T02:39:24.281Z,20.60
2022-08-17T02:42:01.537Z,20.80
2022-08-17T02:44:39.597Z,21.90
2022-08-17T02:47:09.308Z,22.60
2022-08-17T02:49:37.594Z,23.10
2022-08-17T02:52:06.938Z,22.15
2022-08-17T02:54:41.702Z,23.20
2022-08-17T02:57:10.531Z,23.63
2022-08-17T02:59:39.259Z,23.52
2022-08-17T03:02:08.759Z,23.52
2022-08-17T03:04:36.084Z,23.42
2022-08-17T03:07:04.893Z,25.05
2022-08-17T03:09:32.147Z,24.85
2022-08-17T03:12:12.159Z,23.95
2022-08-17T03:14:43.312Z,24.80
2022-08-17T03:17:11.220Z,25.50
2022-08-17T03:19:43.126Z,24.45
2022-08-17T03:22:35.877Z,25.00
2022-08-17T03:24:58.244Z,25.25
2022-08-17T03:27:25.466Z,26.17
2022-08-17T03:29:53.062Z,26.73
2022-08-17T03:32:20.749Z,28.90
2022-08-17T03:34:48.476Z,26.98
2022-08-17T03:37:15.800Z,27.45
2022-08-17T03:39:43.132Z,27.90
2022-08-17T03:42:31.890Z,29.33
2022-08-17T03:45:01.071Z,27.83
2022-08-17T03:47:46.911Z,28.10
2022-08-17T03:50:38.126Z,27.95
2022-08-17T03:53:34.730Z,27.52
2022-08-17T03:56:23.522Z,29.30
2022-08-17T03:58:50.610Z,29.73
2022-08-17T04:01:18.221Z,30.35
2022-08-17T04:03:45.366Z,29.85
2022-08-17T04:06:12.522Z,31.65
2022-08-17T04:08:39.664Z,31.45
2022-08-17T04:11:06.805Z,31.08
2022-08-17T04:13:33.966Z,32.88
2022-08-17T04:16:01.102Z,30.92
2022-08-17T04:18:28.201Z,32.10
2022-08-17T04:20:55.732Z,32.78
2022-08-17T04:23:28.242Z,31.13
2022-08-17T04:25:55.608Z,32.03
2022-08-17T04:28:22.755Z,32.13
2022-08-17T04:30:49.950Z,32.42
2022-08-17T04:33:19.768Z,32.90
2022-08-17T04:35:50.039Z,30.63
2022-08-17T04:38:24.146Z,33.28
2022-08-17T04:41:10.809Z,33.20
2022-08-17T04:43:42.966Z,32.28
2022-08-17T04:46:14.612Z,33.45
2022-08-17T04:48:47.960Z,32.60
2022-08-17T04:51:18.063Z,31.83
2022-08-17T04:53:53.928Z,32.65
2022-08-17T04:56:23.871Z,32.92
2022-08-17T04:58:53.193Z,33.50
2022-08-17T05:01:23.685Z,34.03
2022-08-17T05:03:53.620Z,31.85
2022-08-17T05:06:21.033Z,34.50
2022-08-17T05:08:48.540Z,34.15
2022-08-17T05:11:15.805Z,35.88
2022-08-17T05:13:43.395Z,34.50
2022-08-17T05:16:10.875Z,33.25
2022-08-17T05:18:38.941Z,33.45
2022-08-17T05:21:06.976Z,33.05
2022-08-17T05:23:42.990Z,35.20
2022-08-17T05:26:26.269Z,35.60
2022-08-17T05:29:00.448Z,34.45
2022-08-17T05:31:30.921Z,34.80
2022-08-17T05:33:58.951Z,36.28
2022-08-17T05:36:41.763Z,35.80
2022-08-17T05:39:16.600Z,34.42
2022-08-17T05:41:48.267Z,31.98
2022-08-17T05:44:16.315Z,36.05
2022-08-17T05:46:49.888Z,36.10
2022-08-17T05:49:27.093Z,35.63
2022-08-17T05:52:19.771Z,34.42
2022-08-17T05:54:57.729Z,33.80
2022-08-17T05:57:36.063Z,33.00
2022-08-17T06:00:20.802Z,32.10
2022-08-17T06:03:16.196Z,29.08
2022-08-17T06:06:01.833Z,30.35
2022-08-17T06:08:38.269Z,29.27
2022-08-17T06:11:30.359Z,26.23
2022-08-17T06:14:29.733Z,28.20
2022-08-17T06:17:08.378Z,32.53
2022-08-17T06:19:50.140Z,28.00
2022-08-17T06:22:22.225Z,30.42
2022-08-17T06:25:12.869Z,28.58
2022-08-17T06:27:53.545Z,28.90
2022-08-17T06:30:29.441Z,30.00
2022-08-17T06:33:26.670Z,27.83
2022-08-17T06:36:09.986Z,28.23
2022-08-17T06:39:14.349Z,27.52
2022-08-17T06:41:53.904Z,26.42
2022-08-17T06:44:54.990Z,26.23
2022-08-17T06:47:28.776Z,24.95
2022-08-17T06:50:02.284Z,23.48
2022-08-17T06:52:45.255Z,26.58
2022-08-17T06:55:21.388Z,24.55
2022-08-17T06:57:57.568Z,23.23
2022-08-17T07:00:29.900Z,26.35
2022-08-17T07:03:14.820Z,27.10
2022-08-17T07:06:02.726Z,26.92
2022-08-17T07:09:08.034Z,23.35
2022-08-17T07:12:00.244Z,22.08
2022-08-17T07:14:39.695Z,24.02
2022-08-17T07:17:18.269Z,21.35
2022-08-17T07:19:49.008Z,24.58
2022-08-17T07:22:30.327Z,24.52
2022-08-17T07:25:18.715Z,23.10
2022-08-17T07:27:51.350Z,22.48
2022-08-17T07:30:26.154Z,23.77
2022-08-17T07:33:08.300Z,22.92
2022-08-17T07:35:44.247Z,20.33
2022-08-17T07:38:28.355Z,22.17
2022-08-17T07:43:31.149Z,20.15
2022-08-17T07:46:18.894Z,20.70
2022-08-17T07:48:50.471Z,23.67
2022-08-17T07:51:28.473Z,19.48
2022-08-17T07:54:14.221Z,18.98
2022-08-17T07:57:03.991Z,21.75
2022-08-17T07:59:36.886Z,21.77
2022-08-17T08:02:06.158Z,21.57
2022-08-17T08:07:34.680Z,17.92
2022-08-17T08:10:10.884Z,18.98
2022-08-17T08:12:44.317Z,18.25
2022-08-17T08:15:33.189Z,18.25
2022-08-17T08:18:04.196Z,18.15
2022-08-17T08:20:53.216Z,17.05
2022-08-17T08:23:33.354Z,15.30
2022-08-17T08:26:18.619Z,17.55
2022-08-17T08:29:12.635Z,16.55
2022-08-17T08:32:14.726Z,13.70
2022-08-17T08:35:06.659Z,12.82
2022-08-17T08:38:07.570Z,13.40
2022-08-17T08:40:38.747Z,13.48
2022-08-17T08:43:26.643Z,11.55
2022-08-17T08:46:32.234Z,10.48
2022-08-17T08:50:01.808Z,10.38
2022-08-17T08:52:44.223Z,11.18
2022-08-17T08:55:22.035Z,10.25
2022-08-17T08:58:00.760Z,9.15
2022-08-17T09:00:35.710Z,9.38
2022-08-17T09:03:51.688Z,8.82
2022-08-17T09:06:33.623Z,8.60
2022-08-17T09:09:26.499Z,8.45
2022-08-17T09:12:33.373Z,8.50
2022-08-17T09:15:12.962Z,7.90
2022-08-17T09:17:46.154Z,7.07
2022-08-17T09:20:27.550Z,6.60
2022-08-17T09:23:14.723Z,5.95
2022-08-17T09:26:22.480Z,5.60
2022-08-17T09:28:55.809Z,5.10
2022-08-17T09:31:35.433Z,5.30
2022-08-17T09:34:18.287Z,5.18
2022-08-17T09:36:49.750Z,5.45
2022-08-17T09:39:44.596Z,5.38
2022-08-17T09:45:24.628Z,5.45
2022-08-17T09:48:04.820Z,5.00
2022-08-17T09:50:55.443Z,5.00
2022-08-17T09:53:36.975Z,4.80
2022-08-17T09:56:04.304Z,4.85
2022-08-17T09:58:47.668Z,4.60
2022-08-17T10:01:24.711Z,5.32
2022-08-17T10:04:30.203Z,4.43
2022-08-17T10:06:58.864Z,4.93
2022-08-17T10:09:45.795Z,5.35
2022-08-17T10:12:35.649Z,5.30
2022-08-17T10:15:22.561Z,4.97
2022-08-17T10:18:20.041Z,5.43
2022-08-17T10:21:26.723Z,5.35
2022-08-17T10:24:31.017Z,4.72
2022-08-17T10:29:47.400Z,4.88
2022-08-17T10:32:32.857Z,5.60
2022-08-17T10:35:14.542Z,4.70
2022-08-17T10:37:47.966Z,4.80
2022-08-17T10:45:36.013Z,4.40
2022-08-17T10:48:07.326Z,4.55
2022-08-17T10:50:57.512Z,4.95
2022-08-17T10:53:38.767Z,4.75
2022-08-17T10:56:13.544Z,4.13
2022-08-17T10:58:56.262Z,4.68
2022-08-17T11:01:33.038Z,4.47
2022-08-17T11:04:18.598Z,4.85
2022-08-17T11:11:08.628Z,4.65
2022-08-17T11:13:38.554Z,5.13
2022-08-17T11:16:17.593Z,4.82
2022-08-17T11:19:05.878Z,4.72
2022-08-17T11:22:07.142Z,4.60
2022-08-17T11:24:37.728Z,4.80
2022-08-17T11:27:13.976Z,4.93
2022-08-17T11:29:58.174Z,5.28
2022-08-17T11:32:34.122Z,5.18
2022-08-17T11:35:12.326Z,4.75
2022-08-17T11:37:58.967Z,5.20
2022-08-17T11:41:18.481Z,4.88
2022-08-17T11:44:16.802Z,4.47
2022-08-17T11:47:30.830Z,4.80
2022-08-17T11:50:35.287Z,4.25
2022-08-17T11:53:02.729Z,4.45
2022-08-17T11:55:38.185Z,4.95
2022-08-17T11:58:29.706Z,4.03
2022-08-17T12:00:59.897Z,4.50
2022-08-17T12:03:39.141Z,4.55
2022-08-17T12:06:30.976Z,4.53
2022-08-17T12:09:39.778Z,4.20
2022-08-17T12:12:33.404Z,4.97
2022-08-17T12:15:11.773Z,4.97
2022-08-17T12:17:42.620Z,4.43
2022-08-17T12:20:21.459Z,4.45
2022-08-17T12:23:07.021Z,5.10
2022-08-17T12:25:47.029Z,4.97
2022-08-17T12:28:36.371Z,4.18
2022-08-17T12:31:08.100Z,3.85
2022-08-17T12:33:38.168Z,4.30
2022-08-17T12:36:08.848Z,4.10
2022-08-17T12:38:38.158Z,4.43
2022-08-17T12:41:27.090Z,4.07
2022-08-17T12:44:02.063Z,4.47
2022-08-17T12:46:33.531Z,4.05
2022-08-17T12:49:28.274Z,4.05
2022-08-17T12:52:17.680Z,4.35
2022-08-17T12:55:07.021Z,4.07
2022-08-17T12:57:41.961Z,4.70
2022-08-17T13:00:17.659Z,4.85
2022-08-17T13:02:57.971Z,4.88
2022-08-17T13:05:35.518Z,4.25
2022-08-17T13:08:14.435Z,5.15
2022-08-17T13:10:42.252Z,4.60
2022-08-17T13:13:25.098Z,4.93
2022-08-17T13:15:55.599Z,4.50
2022-08-17T13:18:40.306Z,4.82
2022-08-17T13:21:12.148Z,5.00
2022-08-17T13:23:39.513Z,5.30
2022-08-17T13:26:16.140Z,4.63
2022-08-17T13:28:51.663Z,4.00
2022-08-17T13:31:28.417Z,4.13
2022-08-17T13:34:23.829Z,4.13
2022-08-17T13:37:33.675Z,4.15
2022-08-17T13:40:04.455Z,4.50
2022-08-17T13:42:54.174Z,4.20
2022-08-17T13:45:36.291Z,4.05
2022-08-17T13:48:11.145Z,4.13
2022-08-17T13:50:56.271Z,3.90
2022-08-17T13:53:39.480Z,4.10
2022-08-17T13:56:37.148Z,3.65
2022-08-17T13:59:00.715Z,4.28
2022-08-17T14:01:37.003Z,4.35
2022-08-17T14:04:07.625Z,4.00
2022-08-17T14:06:53.094Z,4.03
2022-08-17T14:09:27.110Z,4.28
2022-08-17T14:14:23.233Z,4.20
2022-08-17T14:16:51.978Z,4.25
2022-08-17T14:19:21.822Z,4.53
2022-08-17T14:21:49.799Z,4.35
2022-08-17T14:24:30.079Z,4.63
2022-08-17T14:26:59.719Z,4.10
2022-08-17T14:29:29.535Z,4.88
2022-08-17T14:31:57.946Z,4.65
2022-08-17T14:34:25.587Z,4.30
2022-08-17T14:36:53.005Z,4.32
2022-08-17T14:39:20.618Z,4.25
2022-08-17T14:41:48.384Z,4.35
2022-08-17T14:44:16.287Z,4.20
2022-08-17T14:46:45.085Z,4.72
2022-08-17T14:49:15.636Z,4.38
2022-08-17T14:51:43.890Z,4.47
2022-08-17T14:54:33.710Z,4.35
2022-08-17T14:57:23.317Z,3.92
2022-08-17T14:59:54.926Z,3.95
2022-08-17T15:02:29.540Z,4.00
2022-08-17T15:05:06.013Z,4.18
2022-08-17T15:07:33.198Z,4.15
2022-08-17T15:10:01.332Z,4.43
2022-08-17T15:12:33.360Z,4.35
2022-08-17T15:15:05.555Z,4.35
2022-08-17T15:17:44.240Z,4.68
2022-08-17T15:20:21.753Z,3.85
2022-08-17T15:22:49.988Z,4.38
2022-08-17T15:25:19.284Z,4.05
2022-08-17T15:27:47.347Z,4.60
2022-08-17T15:30:15.488Z,4.20
2022-08-17T15:32:46.841Z,4.75
2022-08-17T15:35:27.073Z,3.90
2022-08-17T15:37:57.926Z,4.32
2022-08-17T15:40:25.185Z,4.53
2022-08-17T15:42:52.881Z,4.18
2022-08-17T15:45:24.493Z,4.80
2022-08-17T15:47:52.715Z,4.35
2022-08-17T15:50:20.091Z,4.07
2022-08-17T15:52:47.561Z,4.05
2022-08-17T15:55:15.353Z,4.00
2022-08-17T15:57:42.539Z,4.47
2022-08-17T16:00:11.173Z,4.53
2022-08-17T16:03:45.966Z,4.57
2022-08-17T16:05:31.132Z,4.55
2022-08-17T16:07:59.702Z,4.45
2022-08-17T16:10:35.024Z,4.80
2022-08-17T16:13:04.566Z,4.63
2022-08-17T16:15:32.273Z,4.90
2022-08-17T16:17:59.739Z,4.90
2022-08-17T16:20:27.266Z,4.78
2022-08-17T16:22:55.174Z,5.57
2022-08-17T16:25:52.508Z,5.10
2022-08-17T16:28:17.759Z,5.35
2022-08-17T16:30:45.410Z,5.55
2022-08-17T16:33:13.546Z,5.20
2022-08-17T16:35:41.977Z,5.47
2022-08-17T16:38:09.554Z,5.63
2022-08-17T16:40:41.536Z,5.55
2022-08-17T16:43:12.066Z,5.88
2022-08-17T16:45:40.647Z,5.40
2022-08-17T16:48:09.442Z,5.60
2022-08-17T16:50:36.905Z,6.05
2022-08-17T16:53:10.483Z,6.13
2022-08-17T16:55:38.432Z,5.32
2022-08-17T16:58:06.308Z,5.57
2022-08-17T17:00:33.736Z,5.53
2022-08-17T17:03:19.385Z,5.90
2022-08-17T17:06:18.628Z,6.30
2022-08-17T17:08:58.763Z,5.72
2022-08-17T17:11:42.871Z,6.43
2022-08-17T17:14:20.606Z,5.38
2022-08-17T17:17:01.655Z,5.38
2022-08-17T17:19:37.754Z,5.57
2022-08-17T17:22:27.302Z,5.20
2022-08-17T17:25:13.665Z,5.72
2022-08-17T17:27:59.882Z,5.78
2022-08-17T17:30:37.150Z,5.57
2022-08-17T17:33:14.605Z,5.40
2022-08-17T17:35:56.620Z,5.20
2022-08-17T17:38:29.180Z,5.30
2022-08-17T17:41:04.539Z,4.95
2022-08-17T17:43:39.223Z,5.30
2022-08-17T17:46:26.687Z,4.90
2022-08-17T17:48:57.442Z,4.97
2022-08-17T17:52:03.563Z,5.10
2022-08-17T17:55:05.606Z,5.75
2022-08-17T17:57:57.422Z,4.85
2022-08-17T18:00:26.335Z,4.93
2022-08-17T18:02:59.358Z,5.45
2022-08-17T18:05:48.912Z,5.15
2022-08-17T18:08:34.097Z,5.03
2022-08-17T18:11:34.857Z,4.82
2022-08-17T18:14:24.045Z,5.32
2022-08-17T18:16:57.031Z,5.15
2022-08-17T18:19:26.263Z,8.02
2022-08-17T18:22:02.664Z,5.65
2022-08-17T18:24:33.264Z,5.95
2022-08-17T18:27:02.731Z,5.45
2022-08-17T18:29:47.886Z,4.88
2022-08-17T18:32:35.377Z,4.97
2022-08-17T18:35:08.716Z,4.15
2022-08-17T18:40:35.021Z,4.70
2022-08-17T18:43:25.468Z,4.40
2022-08-17T18:45:57.481Z,3.78
2022-08-17T18:48:49.510Z,3.88
2022-08-17T18:51:40.850Z,4.32
2022-08-17T18:54:15.348Z,3.95
2022-08-17T18:56:48.908Z,3.50
2022-08-17T19:02:10.064Z,3.88
2022-08-17T19:05:08.385Z,3.08
2022-08-17T19:07:40.895Z,3.00
2022-08-17T19:10:10.736Z,3.33
2022-08-17T19:13:12.434Z,3.15
2022-08-17T19:16:11.674Z,3.92
2022-08-17T19:18:47.369Z,4.45
2022-08-17T19:21:25.947Z,4.00
2022-08-17T19:24:04.906Z,4.40
2022-08-17T19:26:53.636Z,3.80
2022-08-17T19:29:45.579Z,4.55
2022-08-17T19:32:16.366Z,4.20
2022-08-17T19:34:44.670Z,5.40
2022-08-17T19:37:33.251Z,5.80
2022-08-17T19:40:51.654Z,5.70
2022-08-17T19:43:45.818Z,5.93
2022-08-17T19:46:27.447Z,6.95
2022-08-17T19:49:19.799Z,6.13
2022-08-17T19:52:02.132Z,6.82
2022-08-17T19:54:38.055Z,6.20
2022-08-17T19:57:19.388Z,6.28
2022-08-17T19:59:56.424Z,6.80
2022-08-17T20:02:32.494Z,6.47
2022-08-17T20:05:05.017Z,6.97
2022-08-17T20:07:49.541Z,6.07
2022-08-17T20:10:39.594Z,6.35
2022-08-17T20:13:13.874Z,7.28
2022-08-17T20:15:42.909Z,7.07
2022-08-17T20:18:20.440Z,7.05
2022-08-17T20:20:50.618Z,7.00
2022-08-17T20:23:31.273Z,7.40
2022-08-17T20:26:09.780Z,7.78
2022-08-17T20:28:39.054Z,7.97
2022-08-17T20:31:44.581Z,7.47
2022-08-17T20:34:33.715Z,7.82
2022-08-17T20:37:10.611Z,7.55
2022-08-17T20:39:46.523Z,8.33
2022-08-17T20:42:19.665Z,8.38
2022-08-17T20:44:50.224Z,7.68
2022-08-17T20:47:26.976Z,8.23
2022-08-17T20:50:08.029Z,7.90
2022-08-17T20:52:52.546Z,8.10
2022-08-17T20:55:52.045Z,8.38
2022-08-17T20:58:23.011Z,8.40
2022-08-17T21:00:56.011Z,8.23
2022-08-17T21:03:24.098Z,7.53
2022-08-17T21:06:17.219Z,7.78
2022-08-17T21:09:12.695Z,8.13
2022-08-17T21:12:03.502Z,8.27
2022-08-17T21:14:51.044Z,7.57
2022-08-17T21:17:35.808Z,7.43
2022-08-17T21:20:12.678Z,7.85
2022-08-17T21:23:00.585Z,7.65
2022-08-17T21:25:37.144Z,8.38
2022-08-17T21:28:23.106Z,8.52
2022-08-17T21:31:09.294Z,9.30
2022-08-17T21:33:38.948Z,8.27
2022-08-17T21:36:11.825Z,8.60
2022-08-17T21:38:47.843Z,8.27
2022-08-17T21:41:55.233Z,8.85
2022-08-17T21:44:47.206Z,8.07
2022-08-17T21:47:21.990Z,8.55
2022-08-17T21:49:49.270Z,7.97
2022-08-17T21:52:20.305Z,7.72
2022-08-17T21:55:02.290Z,8.30
2022-08-17T21:57:30.917Z,7.38
2022-08-17T22:00:00.700Z,7.22
2022-08-17T22:02:36.292Z,7.60
2022-08-17T22:05:09.621Z,6.63
2022-08-17T22:07:58.667Z,7.10
2022-08-17T22:10:44.415Z,6.60
2022-08-17T22:13:17.915Z,6.90
2022-08-17T22:15:48.003Z,6.60
2022-08-17T22:18:28.800Z,6.78
2022-08-17T22:20:58.015Z,6.78
2022-08-17T22:23:47.842Z,6.97
2022-08-17T22:26:17.624Z,6.68
2022-08-17T22:28:56.347Z,6.75
2022-08-17T22:31:26.463Z,7.00
2022-08-17T22:34:02.564Z,6.22
2022-08-17T22:36:40.383Z,6.40
2022-08-17T22:39:08.308Z,6.30
2022-08-17T22:41:41.299Z,6.68
2022-08-17T22:44:09.000Z,6.90
2022-08-17T22:46:41.333Z,6.28
2022-08-17T22:49:08.588Z,6.38
2022-08-17T22:51:36.756Z,6.95
2022-08-17T22:54:36.265Z,6.70
2022-08-17T22:57:23.695Z,6.53
2022-08-17T22:59:54.617Z,6.38
2022-08-17T23:02:32.103Z,6.38
2022-08-17T23:05:15.746Z,6.13
2022-08-17T23:07:45.522Z,6.20
2022-08-17T23:10:14.249Z,5.90
2022-08-17T23:12:41.513Z,6.35
2022-08-17T23:15:14.265Z,5.95
2022-08-17T23:17:41.957Z,6.53
2022-08-17T23:20:12.558Z,5.68
2022-08-17T23:22:51.370Z,6.45
2022-08-17T23:25:31.724Z,6.35
2022-08-17T23:28:01.889Z,6.28
2022-08-17T23:30:34.947Z,5.95
2022-08-17T23:33:07.307Z,6.35
2022-08-17T23:35:39.637Z,6.57
2022-08-17T23:38:10.541Z,6.40
2022-08-17T23:40:39.224Z,6.18
2022-08-17T23:43:23.894Z,5.78
2022-08-17T23:45:54.348Z,6.00
2022-08-17T23:48:35.268Z,6.97
2022-08-17T23:51:16.759Z,6.10
2022-08-17T23:53:48.111Z,7.05
2022-08-17T23:56:15.868Z,6.35
2022-08-17T23:58:44.769Z,7.03
